Snyder, Missouri
Current Conditions -  °F | °C
As of 4:15 PM on Sunday 21 Dec 2014 (Local Time) from KVER Reporting Station
Overcast Overcast  
Wind Chill: 38°   Ceiling: 4800
Heat Index: 44°   Visibility: 10mi
Dew Point: 40°   Wind: 12mph
Humidity: 87%   Direction: 150°SSE
Pressure: 29.92"   Gusts: NA
Location:  39.5082°N, 93.2104°W
Report Text: KVER 212215Z AUTO 15010KT 10SM SCT016 SCT033 OVC048 07/05 A2992 RMK AO2 T00660045
Loading
Personal Weather Stations






























Interactive Weather Map New forecast layout! Learn more

10-Day Weather Forecast

Advertisements
Track Severe Weather on mobile